createdAt,value
2019-01-16T00:01:46.034Z,94.25
2019-01-16T00:02:52.138Z,94.44
2019-01-16T00:03:59.810Z,94.20
2019-01-16T00:05:05.707Z,94.07
2019-01-16T00:06:29.226Z,94.37
2019-01-16T00:07:49.785Z,94.98
2019-01-16T00:09:09.844Z,94.96
2019-01-16T00:10:19.031Z,94.75
2019-01-16T00:11:30.500Z,94.75
2019-01-16T00:12:39.140Z,94.27
2019-01-16T00:15:34.696Z,94.25
2019-01-16T00:17:09.516Z,94.22
2019-01-16T00:18:29.503Z,93.81
2019-01-16T00:21:20.896Z,94.04
2019-01-16T00:22:30.658Z,93.68
2019-01-16T00:25:13.885Z,94.04
2019-01-16T00:26:21.976Z,93.49
2019-01-16T00:27:31.852Z,93.33
2019-01-16T00:28:48.408Z,93.93
2019-01-16T00:30:00.242Z,93.11
2019-01-16T00:31:10.807Z,93.72
2019-01-16T00:32:20.444Z,93.86
2019-01-16T00:33:26.579Z,93.32
2019-01-16T00:34:38.418Z,93.62
2019-01-16T00:35:45.379Z,93.75
2019-01-16T00:37:07.190Z,93.64
2019-01-16T00:38:18.852Z,93.73
2019-01-16T00:39:30.482Z,93.55
2019-01-16T00:40:53.433Z,93.48
2019-01-16T00:42:05.218Z,94.09
2019-01-16T00:43:17.091Z,93.88
2019-01-16T00:44:30.874Z,94.04
2019-01-16T00:45:40.431Z,94.16
2019-01-16T00:46:51.994Z,94.23
2019-01-16T00:48:15.801Z,93.80
2019-01-16T00:49:24.490Z,93.47
2019-01-16T00:50:36.357Z,93.67
2019-01-16T00:51:44.537Z,93.89
2019-01-16T00:52:51.088Z,93.88
2019-01-16T00:54:00.643Z,94.42
2019-01-16T00:55:12.527Z,94.72
2019-01-16T00:56:19.155Z,94.80
2019-01-16T00:57:25.304Z,94.84
2019-01-16T00:58:31.418Z,94.63
2019-01-16T00:59:48.294Z,94.91
2019-01-16T01:00:55.384Z,94.30
2019-01-16T01:02:06.343Z,93.81
2019-01-16T01:03:28.329Z,93.68
2019-01-16T01:05:08.181Z,93.36
2019-01-16T01:06:35.527Z,93.43
2019-01-16T01:09:13.926Z,93.95
2019-01-16T01:10:25.646Z,93.53
2019-01-16T01:11:32.166Z,93.81
2019-01-16T01:12:44.150Z,93.86
2019-01-16T01:15:25.838Z,93.62
2019-01-16T01:16:36.547Z,94.20
2019-01-16T01:19:24.013Z,93.43
2019-01-16T01:20:35.312Z,93.77
2019-01-16T01:21:42.930Z,94.67
2019-01-16T01:22:51.477Z,94.20
2019-01-16T01:24:00.500Z,94.34
2019-01-16T01:25:12.253Z,94.28
2019-01-16T01:26:18.413Z,94.19
2019-01-16T01:27:23.928Z,94.12
2019-01-16T01:28:33.629Z,93.83
2019-01-16T01:31:23.977Z,93.75
2019-01-16T01:32:31.600Z,93.45
2019-01-16T01:35:19.527Z,93.82
2019-01-16T01:38:03.735Z,93.15
2019-01-16T01:41:01.681Z,93.68
2019-01-16T01:42:21.970Z,93.34
2019-01-16T01:43:28.963Z,93.62
2019-01-16T01:44:40.626Z,94.00
2019-01-16T01:45:53.095Z,93.76
2019-01-16T01:47:09.193Z,93.88
2019-01-16T01:48:18.214Z,94.15
2019-01-16T01:49:41.883Z,93.69
2019-01-16T01:50:49.554Z,93.55
2019-01-16T01:53:39.449Z,94.29
2019-01-16T01:54:47.441Z,94.67
2019-01-16T01:56:07.451Z,94.56
2019-01-16T01:57:27.387Z,93.96
2019-01-16T01:58:39.052Z,94.43
2019-01-16T01:59:47.688Z,94.34
2019-01-16T02:00:59.967Z,94.36
2019-01-16T02:02:08.276Z,94.01
2019-01-16T02:03:18.220Z,93.87
2019-01-16T02:04:24.392Z,93.94
2019-01-16T02:05:35.225Z,93.35
2019-01-16T02:06:46.894Z,93.36
2019-01-16T02:07:55.442Z,94.17
2019-01-16T02:09:02.064Z,93.67
2019-01-16T02:10:17.568Z,92.99
2019-01-16T02:11:27.083Z,92.94
2019-01-16T02:12:35.688Z,92.92
2019-01-16T02:13:42.704Z,92.85
2019-01-16T02:14:51.648Z,92.67
2019-01-16T02:17:38.819Z,91.95
2019-01-16T02:19:01.734Z,92.31
2019-01-16T02:21:44.233Z,93.05
2019-01-16T02:22:56.038Z,93.03
2019-01-16T02:25:54.497Z,92.08
2019-01-16T02:27:11.465Z,92.29
2019-01-16T02:30:16.716Z,92.20
2019-01-16T02:31:39.950Z,92.19
2019-01-16T02:32:51.660Z,92.74
2019-01-16T02:33:58.604Z,92.45
2019-01-16T02:35:21.775Z,92.02
2019-01-16T02:36:29.334Z,91.97
2019-01-16T02:39:12.783Z,92.02
2019-01-16T02:40:19.279Z,91.92
2019-01-16T02:41:29.991Z,91.97
2019-01-16T02:42:39.066Z,91.78
2019-01-16T02:43:49.323Z,91.88
2019-01-16T02:46:32.941Z,91.99
2019-01-16T02:47:44.805Z,91.58
2019-01-16T02:48:56.569Z,91.52
2019-01-16T02:52:02.494Z,92.07
2019-01-16T02:53:34.152Z,93.15
2019-01-16T02:54:40.240Z,93.37
2019-01-16T02:55:46.986Z,93.96
2019-01-16T02:57:04.839Z,93.67
2019-01-16T02:58:14.642Z,93.45
2019-01-16T02:59:22.662Z,93.60
2019-01-16T03:02:13.397Z,94.53
2019-01-16T03:03:21.092Z,94.41
2019-01-16T03:04:42.943Z,95.01
2019-01-16T03:05:55.039Z,95.09
2019-01-16T03:07:20.996Z,94.56
2019-01-16T03:08:27.909Z,94.43
2019-01-16T03:09:34.797Z,93.74
2019-01-16T03:10:41.310Z,93.82
2019-01-16T03:11:47.811Z,94.26
2019-01-16T03:12:55.715Z,95.19
2019-01-16T03:14:01.783Z,95.10
2019-01-16T03:15:08.811Z,94.81
2019-01-16T03:16:24.967Z,94.77
2019-01-16T03:17:32.598Z,94.45
2019-01-16T03:20:25.876Z,96.34
2019-01-16T03:21:47.693Z,95.38
2019-01-16T03:22:59.249Z,94.96
2019-01-16T03:24:09.021Z,94.87
2019-01-16T03:27:13.212Z,94.63
2019-01-16T03:28:48.001Z,95.53
2019-01-16T03:30:27.409Z,94.56
2019-01-16T03:31:53.149Z,93.97
2019-01-16T03:34:37.230Z,95.16
2019-01-16T03:35:54.182Z,94.64
2019-01-16T03:37:03.163Z,94.21
2019-01-16T03:40:08.709Z,93.59
2019-01-16T03:41:25.513Z,93.30
2019-01-16T03:42:31.941Z,93.63
2019-01-16T03:43:47.262Z,94.68
2019-01-16T03:44:53.362Z,94.19
2019-01-16T03:46:05.495Z,93.94
2019-01-16T03:48:48.496Z,93.92
2019-01-16T03:50:00.086Z,93.69
2019-01-16T03:52:51.405Z,93.89
2019-01-16T03:53:57.551Z,93.84
2019-01-16T03:56:43.108Z,93.10
2019-01-16T03:57:54.810Z,93.16
2019-01-16T03:59:07.261Z,93.48
2019-01-16T04:00:28.790Z,92.79
2019-01-16T04:03:22.397Z,93.06
2019-01-16T04:04:39.272Z,93.56
2019-01-16T04:05:56.742Z,93.80
2019-01-16T04:07:06.582Z,93.61
2019-01-16T04:08:17.336Z,93.81
2019-01-16T04:09:26.230Z,93.16
2019-01-16T04:10:36.794Z,93.29
2019-01-16T04:11:48.974Z,93.13
2019-01-16T04:13:00.642Z,92.72
2019-01-16T04:14:09.961Z,92.74
2019-01-16T04:16:54.885Z,92.46
2019-01-16T04:18:06.402Z,93.03
2019-01-16T04:19:21.581Z,92.52
2019-01-16T04:20:33.102Z,93.00
2019-01-16T04:23:29.286Z,93.49
2019-01-16T04:24:40.210Z,94.38
2019-01-16T04:25:48.086Z,93.79
2019-01-16T04:28:32.388Z,93.47
2019-01-16T04:34:23.333Z,92.87
2019-01-16T04:35:34.547Z,93.17
2019-01-16T04:36:43.709Z,92.64
2019-01-16T04:37:50.751Z,93.06
2019-01-16T04:38:57.664Z,93.11
2019-01-16T04:40:08.884Z,93.37
2019-01-16T04:41:30.654Z,93.19
2019-01-16T04:42:52.116Z,92.91
2019-01-16T04:45:40.636Z,92.24
2019-01-16T04:46:46.829Z,91.66
2019-01-16T04:48:07.809Z,91.72
2019-01-16T04:49:15.734Z,91.69
2019-01-16T04:52:03.677Z,91.09
2019-01-16T04:53:15.542Z,90.97
2019-01-16T04:54:24.084Z,90.69
2019-01-16T04:55:32.135Z,91.21
2019-01-16T04:56:42.715Z,92.15
2019-01-16T04:57:54.378Z,92.14
2019-01-16T04:59:01.302Z,92.95
2019-01-16T05:00:07.598Z,93.54
2019-01-16T05:02:52.908Z,93.06
2019-01-16T05:04:04.526Z,94.24
2019-01-16T05:05:11.645Z,95.32
2019-01-16T05:06:20.308Z,95.62
2019-01-16T05:09:06.688Z,94.47
2019-01-16T05:10:22.395Z,94.87
2019-01-16T05:11:31.043Z,95.54
2019-01-16T05:12:42.647Z,95.18
2019-01-16T05:15:48.074Z,94.22
2019-01-16T05:17:10.023Z,93.64
2019-01-16T05:18:18.560Z,94.72
2019-01-16T05:19:25.056Z,94.10
2019-01-16T05:20:46.863Z,94.41
2019-01-16T05:21:58.816Z,93.96
2019-01-16T05:23:04.936Z,94.17
2019-01-16T05:24:16.670Z,94.23
2019-01-16T05:25:29.415Z,94.29
2019-01-16T05:26:36.319Z,94.57
2019-01-16T05:27:48.919Z,94.68
2019-01-16T05:29:00.474Z,93.88
2019-01-16T05:30:13.381Z,94.71
2019-01-16T05:31:25.177Z,94.31
2019-01-16T05:34:22.923Z,94.36
2019-01-16T05:35:55.830Z,95.68
2019-01-16T05:37:03.338Z,95.81
2019-01-16T05:38:12.265Z,97.13
2019-01-16T05:40:54.405Z,97.98
2019-01-16T05:42:03.646Z,97.44
2019-01-16T05:44:44.218Z,97.30
2019-01-16T05:45:54.994Z,97.55
2019-01-16T05:47:03.356Z,97.17
2019-01-16T05:48:13.736Z,96.77
2019-01-16T05:49:19.911Z,97.63
2019-01-16T05:50:28.560Z,97.52
2019-01-16T05:51:34.668Z,98.25
2019-01-16T05:52:45.240Z,98.53
2019-01-16T05:53:57.065Z,98.79
2019-01-16T05:55:09.141Z,98.83
2019-01-16T05:56:22.133Z,98.71
2019-01-16T05:57:28.930Z,99.90
2019-01-16T05:58:35.716Z,98.60
2019-01-16T05:59:44.259Z,97.82
2019-01-16T06:01:01.130Z,98.40
2019-01-16T06:02:12.873Z,98.73
2019-01-16T06:03:31.729Z,98.11
2019-01-16T06:04:38.346Z,99.00
2019-01-16T06:05:50.123Z,99.17
2019-01-16T06:07:01.786Z,98.54
2019-01-16T06:08:08.432Z,97.99
2019-01-16T06:10:50.684Z,98.76
2019-01-16T06:12:01.725Z,99.05
2019-01-16T06:13:22.291Z,98.88
2019-01-16T06:14:30.813Z,98.61
2019-01-16T06:15:47.794Z,98.33
2019-01-16T06:18:30.227Z,98.56
2019-01-16T06:19:54.142Z,99.32
2019-01-16T06:21:00.415Z,99.44
2019-01-16T06:22:17.248Z,98.73
2019-01-16T06:23:27.976Z,99.07
2019-01-16T06:24:48.529Z,99.59
2019-01-16T06:25:55.212Z,100.00
2019-01-16T06:27:21.060Z,100.00
2019-01-16T06:28:42.549Z,99.76
2019-01-16T06:29:54.614Z,99.15
2019-01-16T06:31:06.133Z,99.50
2019-01-16T06:32:15.688Z,99.69
2019-01-16T06:33:21.793Z,100.00
2019-01-16T06:34:44.582Z,100.00
2019-01-16T06:35:56.256Z,99.98
2019-01-16T06:37:08.111Z,100.00
2019-01-16T06:38:18.139Z,100.00
2019-01-16T06:39:34.143Z,100.00
2019-01-16T06:40:48.947Z,100.00
2019-01-16T06:41:56.713Z,100.00
2019-01-16T06:43:02.842Z,100.00
2019-01-16T06:45:46.430Z,100.00
2019-01-16T06:46:56.651Z,100.00
2019-01-16T06:48:08.318Z,100.00
2019-01-16T06:49:16.898Z,100.00
2019-01-16T06:50:25.847Z,100.00
2019-01-16T06:51:38.519Z,100.00
2019-01-16T06:52:49.107Z,100.00
2019-01-16T06:53:55.206Z,100.00
2019-01-16T06:55:01.326Z,100.00
2019-01-16T06:57:52.965Z,100.00
2019-01-16T06:58:59.270Z,100.00
2019-01-16T07:00:13.074Z,100.00
2019-01-16T07:01:24.178Z,100.00
2019-01-16T07:02:36.802Z,100.00
2019-01-16T07:05:37.428Z,100.00
2019-01-16T07:07:10.285Z,99.85
2019-01-16T07:08:21.341Z,100.00
2019-01-16T07:11:09.767Z,100.00
2019-01-16T07:13:56.517Z,100.00
2019-01-16T07:15:02.681Z,100.00
2019-01-16T07:16:12.684Z,100.00
2019-01-16T07:19:03.476Z,99.75
2019-01-16T07:20:14.394Z,99.21
2019-01-16T07:21:22.030Z,98.53
2019-01-16T07:22:28.633Z,98.24
2019-01-16T07:23:36.239Z,99.90
2019-01-16T07:26:29.522Z,100.00
2019-01-16T07:27:41.228Z,100.00
2019-01-16T07:29:02.308Z,99.96
2019-01-16T07:30:34.145Z,99.23
2019-01-16T07:31:42.783Z,99.61
2019-01-16T07:32:49.618Z,99.20
2019-01-16T07:35:46.337Z,99.96
2019-01-16T07:36:55.924Z,99.62
2019-01-16T07:38:04.715Z,99.35
2019-01-16T07:39:11.311Z,98.88
2019-01-16T07:40:21.284Z,98.59
2019-01-16T07:41:33.903Z,98.04
2019-01-16T07:42:46.799Z,97.97
2019-01-16T07:45:25.065Z,97.91
2019-01-16T07:48:09.948Z,97.36
2019-01-16T07:49:21.698Z,97.25
2019-01-16T07:52:05.634Z,97.90
2019-01-16T07:53:16.347Z,97.66
2019-01-16T07:54:33.237Z,97.60
2019-01-16T07:57:13.413Z,97.14
2019-01-16T07:58:20.500Z,97.21
2019-01-16T07:59:32.306Z,97.42
2019-01-16T08:00:43.611Z,97.11
2019-01-16T08:02:05.530Z,97.59
2019-01-16T08:03:14.595Z,97.81
2019-01-16T08:04:22.639Z,97.36
2019-01-16T08:05:34.502Z,97.37
2019-01-16T08:08:21.537Z,97.25
2019-01-16T08:09:30.121Z,97.23
2019-01-16T08:10:41.766Z,96.72
2019-01-16T08:13:22.385Z,97.04
2019-01-16T08:16:08.409Z,95.78
2019-01-16T08:17:15.759Z,96.18
2019-01-16T08:18:21.877Z,96.56
2019-01-16T08:19:30.725Z,96.65
2019-01-16T08:20:41.527Z,96.54
2019-01-16T08:21:51.089Z,96.89
2019-01-16T08:22:57.194Z,96.71
2019-01-16T08:24:06.257Z,96.54
2019-01-16T08:25:18.518Z,96.44
2019-01-16T08:26:26.574Z,95.96
2019-01-16T08:27:38.247Z,96.28
2019-01-16T08:30:21.598Z,97.20
2019-01-16T08:31:33.194Z,95.70
2019-01-16T08:32:39.869Z,95.19
2019-01-16T08:33:52.517Z,94.94
2019-01-16T08:35:11.014Z,95.24
2019-01-16T08:36:21.787Z,95.19
2019-01-16T08:37:33.562Z,95.21
2019-01-16T08:40:25.453Z,94.56
2019-01-16T08:41:37.149Z,94.51
2019-01-16T08:42:46.116Z,94.65
2019-01-16T08:43:52.284Z,94.96
2019-01-16T08:45:04.891Z,94.70
2019-01-16T08:46:14.915Z,94.79
2019-01-16T08:47:30.975Z,94.28
2019-01-16T08:48:54.755Z,95.53
2019-01-16T08:51:37.952Z,96.45
2019-01-16T08:52:49.612Z,96.36
2019-01-16T08:54:11.662Z,96.47
2019-01-16T08:55:20.650Z,96.30
2019-01-16T08:56:26.391Z,95.87
2019-01-16T08:57:34.325Z,95.53
2019-01-16T08:58:40.561Z,95.48
2019-01-16T08:59:49.684Z,95.55
2019-01-16T09:01:06.284Z,94.92
2019-01-16T09:02:24.748Z,95.43
2019-01-16T09:03:31.444Z,94.84
2019-01-16T09:04:48.287Z,94.67
2019-01-16T09:05:56.833Z,94.57
2019-01-16T09:07:07.450Z,94.85
2019-01-16T09:08:13.602Z,94.17
2019-01-16T09:09:21.683Z,93.39
2019-01-16T09:10:31.365Z,94.03
2019-01-16T09:11:37.931Z,94.84
2019-01-16T09:12:47.621Z,94.69
2019-01-16T09:14:05.605Z,95.31
2019-01-16T09:15:14.476Z,95.22
2019-01-16T09:16:24.127Z,95.50
2019-01-16T09:19:06.182Z,94.43
2019-01-16T09:20:13.021Z,94.72
2019-01-16T09:21:19.591Z,95.05
2019-01-16T09:22:28.647Z,94.44
2019-01-16T09:23:35.292Z,94.26
2019-01-16T09:24:44.162Z,94.07
2019-01-16T09:27:32.724Z,93.73
2019-01-16T09:30:32.177Z,93.12
2019-01-16T09:32:07.729Z,94.27
2019-01-16T09:33:40.647Z,94.82
2019-01-16T09:34:46.760Z,94.98
2019-01-16T09:35:58.529Z,95.06
2019-01-16T09:38:38.342Z,93.51
2019-01-16T09:40:00.236Z,94.19
2019-01-16T09:41:08.226Z,93.64
2019-01-16T09:42:29.218Z,93.78
2019-01-16T09:43:35.371Z,93.57
2019-01-16T09:44:47.001Z,93.38
2019-01-16T09:45:57.597Z,93.06
2019-01-16T09:47:08.974Z,93.04
2019-01-16T09:49:56.369Z,93.60
2019-01-16T09:51:03.645Z,93.96
2019-01-16T09:53:58.169Z,93.94
2019-01-16T09:56:41.136Z,93.83
2019-01-16T09:57:52.915Z,93.71
2019-01-16T10:00:39.366Z,92.74
2019-01-16T10:03:26.374Z,92.67
2019-01-16T10:04:38.465Z,93.50
2019-01-16T10:05:55.407Z,93.86
2019-01-16T10:07:07.108Z,93.27
2019-01-16T10:08:19.675Z,92.59
2019-01-16T10:09:31.440Z,93.22
2019-01-16T10:10:43.263Z,92.76
2019-01-16T10:11:54.556Z,92.31
2019-01-16T10:13:08.179Z,92.20
2019-01-16T10:14:14.283Z,92.20
2019-01-16T10:15:26.110Z,92.73
2019-01-16T10:16:38.186Z,93.29
2019-01-16T10:17:49.464Z,93.67
2019-01-16T10:18:58.436Z,93.12
2019-01-16T10:21:59.176Z,93.84
2019-01-16T10:23:33.735Z,93.13
2019-01-16T10:24:56.063Z,92.00
2019-01-16T10:26:02.185Z,92.31
2019-01-16T10:27:09.264Z,92.45
2019-01-16T10:28:15.344Z,92.27
2019-01-16T10:29:24.431Z,91.80
2019-01-16T10:30:30.556Z,91.55
2019-01-16T10:31:42.327Z,91.59
2019-01-16T10:32:48.116Z,92.35
2019-01-16T10:33:57.668Z,92.06
2019-01-16T10:35:05.853Z,92.05
2019-01-16T10:36:13.364Z,92.91
2019-01-16T10:37:24.339Z,92.16
2019-01-16T10:38:35.969Z,91.75
2019-01-16T10:39:55.832Z,91.24
2019-01-16T10:41:03.745Z,91.03
2019-01-16T10:42:09.846Z,91.49
2019-01-16T10:43:22.539Z,91.97
2019-01-16T10:44:48.780Z,91.16
2019-01-16T10:47:32.536Z,90.46
2019-01-16T10:48:54.339Z,90.23
2019-01-16T10:50:04.907Z,90.80
2019-01-16T10:51:11.108Z,91.07
2019-01-16T10:54:06.504Z,90.73
2019-01-16T10:55:42.079Z,90.37
2019-01-16T10:57:25.096Z,90.03
2019-01-16T10:58:58.579Z,90.30
2019-01-16T11:01:44.839Z,89.45
2019-01-16T11:02:56.017Z,89.37
2019-01-16T11:04:08.481Z,90.04
2019-01-16T11:05:16.358Z,90.21
2019-01-16T11:06:22.432Z,89.64
2019-01-16T11:07:28.523Z,89.79
2019-01-16T11:08:36.559Z,89.40
2019-01-16T11:09:45.639Z,89.83
2019-01-16T11:10:57.253Z,90.02
2019-01-16T11:12:07.479Z,89.96
2019-01-16T11:13:17.018Z,89.73
2019-01-16T11:14:24.978Z,89.31
2019-01-16T11:15:37.062Z,89.07
2019-01-16T11:18:21.484Z,89.54
2019-01-16T11:19:33.372Z,88.65
2019-01-16T11:20:47.612Z,88.55
2019-01-16T11:23:34.668Z,89.96
2019-01-16T11:24:46.196Z,89.61
2019-01-16T11:25:59.775Z,88.79
2019-01-16T11:27:13.261Z,88.12
2019-01-16T11:30:04.498Z,87.81
2019-01-16T11:32:51.864Z,88.04
2019-01-16T11:35:34.045Z,87.44
2019-01-16T11:38:33.803Z,88.20
2019-01-16T11:40:04.678Z,87.88
2019-01-16T11:41:13.869Z,88.13
2019-01-16T11:44:06.370Z,87.57
2019-01-16T11:45:13.330Z,87.29
2019-01-16T11:46:23.194Z,87.14
2019-01-16T11:49:13.907Z,87.17
2019-01-16T11:50:23.537Z,86.59
2019-01-16T11:51:35.209Z,86.91
2019-01-16T11:52:47.300Z,87.30
2019-01-16T11:53:58.582Z,87.48
2019-01-16T11:55:04.041Z,87.51
2019-01-16T11:56:11.174Z,87.95
2019-01-16T11:57:21.839Z,86.88
2019-01-16T11:58:30.423Z,86.49
2019-01-16T11:59:38.409Z,86.50
2019-01-16T12:00:47.611Z,86.75
2019-01-16T12:01:57.453Z,87.29
2019-01-16T12:03:06.537Z,86.60
2019-01-16T12:04:21.155Z,86.09
2019-01-16T12:05:32.882Z,86.20
2019-01-16T12:06:44.006Z,86.47
2019-01-16T12:07:50.636Z,87.65
2019-01-16T12:08:57.625Z,86.96
2019-01-16T12:10:06.400Z,86.69
2019-01-16T12:11:16.035Z,86.14
2019-01-16T12:12:28.644Z,86.24
2019-01-16T12:13:41.004Z,86.80
2019-01-16T12:14:49.492Z,87.02
2019-01-16T12:15:58.631Z,86.66
2019-01-16T12:17:09.647Z,85.97
2019-01-16T12:18:30.647Z,86.36
2019-01-16T12:19:37.340Z,86.44
2019-01-16T12:20:48.922Z,87.29
2019-01-16T12:21:56.912Z,87.25
2019-01-16T12:23:04.493Z,87.46
2019-01-16T12:26:07.893Z,86.54
2019-01-16T12:27:31.167Z,85.83
2019-01-16T12:28:37.263Z,85.43
2019-01-16T12:29:49.824Z,85.98
2019-01-16T12:31:00.559Z,85.74
2019-01-16T12:32:09.219Z,85.28
2019-01-16T12:34:50.914Z,85.72
2019-01-16T12:35:57.529Z,86.32
2019-01-16T12:37:09.066Z,86.14
2019-01-16T12:38:20.382Z,86.05
2019-01-16T12:39:37.332Z,86.21
2019-01-16T12:40:49.187Z,85.84
2019-01-16T12:42:00.411Z,85.67
2019-01-16T12:43:20.399Z,85.46
2019-01-16T12:44:33.063Z,84.64
2019-01-16T12:45:42.688Z,84.80
2019-01-16T12:47:05.473Z,84.83
2019-01-16T12:48:17.165Z,84.85
2019-01-16T12:49:27.233Z,85.05
2019-01-16T12:50:39.925Z,84.99
2019-01-16T12:51:51.552Z,84.51
2019-01-16T12:52:58.466Z,84.57
2019-01-16T12:54:05.008Z,84.19
2019-01-16T12:55:31.153Z,84.76
2019-01-16T12:58:30.599Z,84.98
2019-01-16T13:00:02.575Z,83.91
2019-01-16T13:01:11.751Z,84.54
2019-01-16T13:02:17.864Z,84.51
2019-01-16T13:03:25.925Z,84.42
2019-01-16T13:04:37.667Z,83.68
2019-01-16T13:05:43.827Z,83.58
2019-01-16T13:06:55.125Z,83.92
2019-01-16T13:08:17.050Z,83.63
2019-01-16T13:09:36.876Z,82.96
2019-01-16T13:10:44.015Z,83.03
2019-01-16T13:13:30.446Z,83.33
2019-01-16T13:14:42.079Z,83.21
2019-01-16T13:15:50.670Z,82.79
2019-01-16T13:17:02.461Z,83.06
2019-01-16T13:18:09.371Z,83.15
2019-01-16T13:19:17.324Z,82.38
2019-01-16T13:20:26.084Z,82.87
2019-01-16T13:21:40.047Z,83.21
2019-01-16T13:22:46.532Z,82.78
2019-01-16T13:24:03.205Z,82.79
2019-01-16T13:25:11.503Z,84.16
2019-01-16T13:26:19.176Z,83.24
2019-01-16T13:27:31.359Z,83.27
2019-01-16T13:28:38.464Z,83.64
2019-01-16T13:29:49.542Z,84.07
2019-01-16T13:32:34.724Z,83.12
2019-01-16T13:35:22.293Z,82.90
2019-01-16T13:36:33.020Z,82.95
2019-01-16T13:37:44.544Z,83.08
2019-01-16T13:39:07.353Z,82.96
2019-01-16T13:40:13.420Z,83.02
2019-01-16T13:41:20.259Z,83.45
2019-01-16T13:42:26.343Z,83.37
2019-01-16T13:43:34.231Z,83.71
2019-01-16T13:46:18.258Z,84.19
2019-01-16T13:47:27.941Z,83.61
2019-01-16T13:48:35.826Z,84.46
2019-01-16T13:49:50.478Z,84.00
2019-01-16T13:50:57.531Z,83.76
2019-01-16T13:53:40.817Z,83.61
2019-01-16T13:54:47.317Z,83.54
2019-01-16T13:55:53.797Z,82.84
2019-01-16T13:57:05.649Z,82.23
2019-01-16T13:58:32.331Z,82.31
2019-01-16T14:00:00.971Z,82.44
2019-01-16T14:01:09.190Z,82.77
2019-01-16T14:02:15.314Z,82.34
2019-01-16T14:03:24.865Z,83.08
2019-01-16T14:06:14.627Z,82.61
2019-01-16T14:07:22.961Z,83.65
2019-01-16T14:10:19.353Z,81.73
2019-01-16T14:11:28.997Z,81.42
2019-01-16T14:12:38.216Z,81.34
2019-01-16T14:13:46.758Z,81.00
2019-01-16T14:14:52.696Z,80.95
2019-01-16T14:16:08.424Z,80.79
2019-01-16T14:17:16.648Z,80.46
2019-01-16T14:18:23.403Z,81.58
2019-01-16T14:19:44.022Z,80.93
2019-01-16T14:21:06.021Z,80.18
2019-01-16T14:23:47.458Z,80.85
2019-01-16T14:25:03.469Z,80.84
2019-01-16T14:26:14.741Z,80.58
2019-01-16T14:29:04.629Z,80.45
2019-01-16T14:30:14.503Z,80.39
2019-01-16T14:31:37.534Z,81.60
2019-01-16T14:32:50.291Z,81.40
2019-01-16T14:35:32.198Z,80.29
2019-01-16T14:36:43.112Z,80.54
2019-01-16T14:37:54.771Z,80.49
2019-01-16T14:39:18.677Z,80.48
2019-01-16T14:40:27.161Z,80.85
2019-01-16T14:41:37.818Z,81.26
2019-01-16T14:42:44.734Z,80.73
2019-01-16T14:43:53.315Z,80.43
2019-01-16T14:45:00.667Z,80.36
2019-01-16T14:46:06.845Z,79.99
2019-01-16T14:47:28.815Z,80.00
2019-01-16T14:48:35.301Z,79.71
2019-01-16T14:51:23.199Z,80.58
2019-01-16T14:52:31.137Z,81.11
2019-01-16T14:53:38.943Z,81.51
2019-01-16T14:55:05.813Z,81.81
2019-01-16T14:56:25.264Z,81.44
2019-01-16T14:59:08.492Z,81.18
2019-01-16T15:00:34.740Z,80.19
2019-01-16T15:01:55.358Z,79.87
2019-01-16T15:03:05.408Z,79.99
2019-01-16T15:04:31.804Z,80.46
2019-01-16T15:05:41.496Z,81.02
2019-01-16T15:06:54.920Z,80.80
2019-01-16T15:08:01.046Z,81.19
2019-01-16T15:09:11.758Z,81.42
2019-01-16T15:10:19.713Z,81.28
2019-01-16T15:11:31.115Z,81.03
2019-01-16T15:12:54.020Z,81.57
2019-01-16T15:14:15.027Z,81.40
2019-01-16T15:15:26.105Z,81.98
2019-01-16T15:16:32.281Z,82.32
2019-01-16T15:17:43.227Z,82.77
2019-01-16T15:20:43.742Z,82.75
2019-01-16T15:22:06.417Z,82.35
2019-01-16T15:24:54.798Z,83.00
2019-01-16T15:26:00.923Z,82.55
2019-01-16T15:27:11.725Z,83.07
2019-01-16T15:28:35.810Z,83.59
2019-01-16T15:29:47.031Z,82.93
2019-01-16T15:32:37.411Z,83.40
2019-01-16T15:33:43.587Z,83.25
2019-01-16T15:34:50.436Z,82.95
2019-01-16T15:36:17.476Z,83.01
2019-01-16T15:37:37.527Z,83.07
2019-01-16T15:38:48.308Z,82.48
2019-01-16T15:39:57.891Z,82.96
2019-01-16T15:41:04.126Z,83.42
2019-01-16T15:42:10.226Z,83.31
2019-01-16T15:44:56.633Z,83.96
2019-01-16T15:46:03.639Z,83.47
2019-01-16T15:48:45.305Z,83.89
2019-01-16T15:51:26.576Z,85.00
2019-01-16T15:52:33.963Z,85.96
2019-01-16T15:53:42.747Z,84.89
2019-01-16T15:54:55.141Z,84.86
2019-01-16T15:56:06.955Z,85.38
2019-01-16T15:57:32.930Z,84.90
2019-01-16T15:58:49.842Z,84.01
2019-01-16T15:59:55.633Z,83.80
2019-01-16T16:01:01.109Z,83.81
2019-01-16T16:02:09.017Z,83.99
2019-01-16T16:03:15.709Z,83.58
2019-01-16T16:04:36.404Z,84.71
2019-01-16T16:05:57.454Z,85.13
2019-01-16T16:08:43.857Z,84.68
2019-01-16T16:09:54.103Z,84.53
2019-01-16T16:11:01.738Z,84.49
2019-01-16T16:12:13.296Z,83.93
2019-01-16T16:13:21.822Z,83.84
2019-01-16T16:14:44.792Z,83.81
2019-01-16T16:15:54.984Z,84.08
2019-01-16T16:17:16.814Z,84.04
2019-01-16T16:18:22.918Z,83.96
2019-01-16T16:19:41.772Z,84.15
2019-01-16T16:20:47.906Z,83.70
2019-01-16T16:21:54.941Z,83.47
2019-01-16T16:23:02.750Z,83.41
2019-01-16T16:24:14.636Z,83.85
2019-01-16T16:25:24.303Z,84.43
2019-01-16T16:26:35.109Z,84.38
2019-01-16T16:29:16.145Z,84.74
2019-01-16T16:30:22.413Z,83.86
2019-01-16T16:33:09.348Z,84.91
2019-01-16T16:35:50.124Z,85.45
2019-01-16T16:37:01.024Z,84.76
2019-01-16T16:38:21.082Z,85.50
2019-01-16T16:41:22.908Z,86.80
2019-01-16T16:42:47.974Z,87.94
2019-01-16T16:44:05.022Z,88.56
2019-01-16T16:46:52.876Z,87.44
2019-01-16T16:48:04.756Z,85.78
2019-01-16T16:49:15.478Z,85.29
2019-01-16T16:50:24.151Z,85.38
2019-01-16T16:53:21.236Z,84.59
2019-01-16T16:54:55.030Z,84.32
2019-01-16T16:56:21.190Z,84.98
2019-01-16T16:57:32.969Z,84.95
2019-01-16T16:58:43.554Z,84.65
2019-01-16T17:01:26.851Z,85.29
2019-01-16T17:04:06.224Z,85.58
2019-01-16T17:06:46.155Z,86.46
2019-01-16T17:07:55.896Z,85.32
2019-01-16T17:09:07.556Z,85.66
2019-01-16T17:10:13.643Z,86.12
2019-01-16T17:11:35.470Z,85.67
2019-01-16T17:12:43.406Z,86.27
2019-01-16T17:13:54.096Z,86.11
2019-01-16T17:15:04.656Z,86.41
2019-01-16T17:16:16.386Z,87.51
2019-01-16T17:17:22.653Z,87.89
2019-01-16T17:18:29.140Z,87.38
2019-01-16T17:19:41.728Z,86.68
2019-01-16T17:20:51.321Z,85.90
2019-01-16T17:21:57.917Z,85.71
2019-01-16T17:23:09.085Z,86.21
2019-01-16T17:24:18.448Z,85.71
2019-01-16T17:25:30.545Z,86.09
2019-01-16T17:26:48.523Z,86.43
2019-01-16T17:27:54.684Z,86.91
2019-01-16T17:29:03.272Z,87.69
2019-01-16T17:31:59.706Z,87.60
2019-01-16T17:33:39.057Z,87.95
2019-01-16T17:35:06.371Z,87.52
2019-01-16T17:37:55.366Z,86.32
2019-01-16T17:39:11.470Z,86.11
2019-01-16T17:40:19.530Z,86.12
2019-01-16T17:41:34.476Z,86.65
2019-01-16T17:44:19.589Z,87.15
2019-01-16T17:45:31.221Z,86.73
2019-01-16T17:46:38.164Z,86.52
2019-01-16T17:47:57.167Z,85.64
2019-01-16T17:49:03.382Z,85.84
2019-01-16T17:50:13.572Z,85.21
2019-01-16T17:51:40.421Z,84.22
2019-01-16T17:54:39.208Z,84.66
2019-01-16T17:56:02.590Z,84.96
2019-01-16T17:59:01.944Z,84.06
2019-01-16T18:00:07.394Z,83.75
2019-01-16T18:01:19.290Z,84.24
2019-01-16T18:02:31.230Z,84.64
2019-01-16T18:03:54.018Z,84.20
2019-01-16T18:05:04.111Z,84.03
2019-01-16T18:06:28.220Z,83.55
2019-01-16T18:07:39.865Z,84.67
2019-01-16T18:08:51.141Z,84.34
2019-01-16T18:11:50.546Z,84.23
2019-01-16T18:13:15.570Z,84.68
2019-01-16T18:14:32.473Z,84.44
2019-01-16T18:15:53.506Z,83.90
2019-01-16T18:17:02.998Z,83.68
2019-01-16T18:19:55.606Z,83.79
2019-01-16T18:21:07.513Z,84.00
2019-01-16T18:22:19.190Z,83.94
2019-01-16T18:23:29.873Z,84.10
2019-01-16T18:24:47.725Z,83.90
2019-01-16T18:25:54.724Z,84.35
2019-01-16T18:28:47.320Z,84.01
2019-01-16T18:29:53.732Z,84.90
2019-01-16T18:31:15.520Z,83.89
2019-01-16T18:32:24.417Z,84.52
2019-01-16T18:33:33.253Z,84.10
2019-01-16T18:34:40.479Z,84.01
2019-01-16T18:35:47.691Z,83.70
2019-01-16T18:36:59.670Z,83.51
2019-01-16T18:38:18.599Z,84.37
2019-01-16T18:39:27.856Z,83.70
2019-01-16T18:40:37.759Z,83.56
2019-01-16T18:41:46.772Z,83.50
2019-01-16T18:44:40.667Z,82.93
2019-01-16T18:45:53.387Z,83.14
2019-01-16T18:46:59.557Z,82.87